Terminal Aerodrome Forecast
Issued by NWS Shreveport, LA

Home | Current Version | Previous Version | Text Only | Print | Product List | Glossary On
Versions: 1 2 3 4 5 6 7 8 9 10 11 12 13 14
379
FTUS44 KSHV 080527
TAFTYR
TAF
KTYR 080527Z 0806/0906 31010KT P6SM FEW250
     FM081500 30014G22KT P6SM SKC
     FM081700 30018G28KT P6SM SKC
     FM090000 30012KT P6SM SKC=

USA.gov is the U.S. government's official web portal to all federal, state and local government web resources and services.